Time;durP1;ratioP1;P1;durP2;ratioP2;P2;SDS_P1;SDS_P2;PMS_P1;PMS_P2;Temp;Humidity;BMP_temperature;BMP_pressure;BME280_temperature;BME280_humidity;BME280_pressure;Samples;Min_cycle;Max_cycle;Signal;HPM_P1;HPM_P2
2024/02/17 00:01:13;;;;;;;25.50;10.77;;;9.90;99.90;;;;;;5014158;28;20082;-52
2024/02/17 00:03:38;;;;;;;24.57;10.53;;;9.90;99.90;;;;;;5014132;28;20054;-51
2024/02/17 00:06:04;;;;;;;25.23;11.23;;;9.90;99.90;;;;;;5012884;28;20029;-50
2024/02/17 00:08:29;;;;;;;23.50;10.57;;;9.90;99.90;;;;;;5013926;28;20310;-49
2024/02/17 00:10:55;;;;;;;26.37;10.87;;;9.90;99.90;;;;;;5013951;28;20125;-50
2024/02/17 00:13:21;;;;;;;26.63;10.87;;;9.90;99.90;;;;;;5013845;28;20021;-49
2024/02/17 00:15:46;;;;;;;21.67;10.60;;;10.00;99.90;;;;;;5013833;28;20025;-50
2024/02/17 00:18:12;;;;;;;25.13;10.63;;;9.90;99.90;;;;;;5013514;28;20439;-50
2024/02/17 00:20:38;;;;;;;25.80;11.13;;;9.90;99.90;;;;;;5012780;28;20025;-49
2024/02/17 00:23:05;;;;;;;20.93;10.63;;;9.90;99.90;;;;;;5013630;28;20033;-49
2024/02/17 00:25:31;;;;;;;23.17;10.00;;;9.90;99.90;;;;;;5013714;28;20092;-50
2024/02/17 00:27:56;;;;;;;23.60;10.83;;;9.90;99.90;;;;;;5013678;28;20129;-49
2024/02/17 00:30:22;;;;;;;23.13;10.23;;;9.90;99.90;;;;;;5013378;28;20553;-49
2024/02/17 00:32:48;;;;;;;26.47;10.83;;;9.90;99.90;;;;;;5013678;28;20030;-54
2024/02/17 00:35:14;;;;;;;23.50;10.47;;;10.00;99.90;;;;;;5013490;28;20542;-51
2024/02/17 00:37:39;;;;;;;22.37;10.30;;;9.90;99.90;;;;;;5013491;28;20061;-50
2024/02/17 00:40:06;;;;;;;23.43;10.30;;;9.90;99.90;;;;;;5013234;28;20075;-49
2024/02/17 00:42:32;;;;;;;19.57;10.13;;;9.80;99.90;;;;;;5013405;28;20030;-49
2024/02/17 00:44:58;;;;;;;24.93;11.27;;;9.80;99.90;;;;;;5013306;28;20037;-49
2024/02/17 00:47:23;;;;;;;21.80;10.47;;;9.80;99.90;;;;;;5013256;28;20392;-49
2024/02/17 00:49:49;;;;;;;19.03;10.03;;;9.80;99.90;;;;;;5013027;28;20116;-49
2024/02/17 00:52:15;;;;;;;24.67;10.33;;;9.80;99.90;;;;;;5013192;28;20030;-49
2024/02/17 00:54:41;;;;;;;25.83;10.77;;;9.70;99.90;;;;;;5013115;28;20038;-48
2024/02/17 00:57:06;;;;;;;27.67;10.80;;;9.80;99.90;;;;;;5013127;28;20109;-49
2024/02/17 00:59:33;;;;;;;23.80;10.50;;;9.70;99.90;;;;;;5012899;28;20034;-50
2024/02/17 01:02:01;;;;;;;22.97;10.43;;;9.70;99.90;;;;;;5013055;28;20111;-48
2024/02/17 01:04:26;;;;;;;24.17;10.57;;;9.80;99.90;;;;;;5012794;28;20399;-48
2024/02/17 01:06:52;;;;;;;23.03;10.50;;;9.80;99.90;;;;;;5012890;28;20026;-48
2024/02/17 01:09:17;;;;;;;23.63;10.47;;;9.80;99.90;;;;;;5012905;28;20018;-49
2024/02/17 01:11:43;;;;;;;23.70;10.77;;;9.80;99.90;;;;;;5013357;28;20518;-49
2024/02/17 01:14:09;;;;;;;22.70;10.33;;;9.70;99.90;;;;;;5012990;28;20549;-49
2024/02/17 01:16:34;;;;;;;22.03;10.10;;;9.70;99.90;;;;;;5013126;28;20521;-48
2024/02/17 01:19:00;;;;;;;21.43;10.83;;;9.60;99.90;;;;;;5013068;28;20501;-49
2024/02/17 01:21:26;;;;;;;26.80;10.60;;;9.60;99.90;;;;;;5013452;28;20026;-48
2024/02/17 01:23:52;;;;;;;22.20;10.27;;;9.60;99.90;;;;;;5013368;28;20088;-51
2024/02/17 01:26:17;;;;;;;26.40;11.67;;;9.60;99.90;;;;;;5014269;28;20029;-53
2024/02/17 01:28:43;;;;;;;27.43;10.77;;;9.70;99.90;;;;;;5013969;28;20041;-51
2024/02/17 01:31:09;;;;;;;26.53;11.00;;;9.60;99.90;;;;;;5013593;28;20018;-49
2024/02/17 01:33:34;;;;;;;29.60;11.93;;;9.70;99.90;;;;;;5013627;28;20339;-52
2024/02/17 01:36:00;;;;;;;26.30;10.87;;;9.80;99.90;;;;;;5012598;28;20026;-52
2024/02/17 01:38:26;;;;;;;34.33;11.53;;;9.80;99.90;;;;;;5012512;28;20030;-50
2024/02/17 01:40:52;;;;;;;23.47;10.40;;;9.80;99.90;;;;;;5012299;28;20467;-52
2024/02/17 01:43:17;;;;;;;26.80;11.10;;;9.80;99.90;;;;;;5012682;28;20032;-49
2024/02/17 01:45:44;;;;;;;24.50;10.67;;;9.80;99.90;;;;;;5012261;28;20065;-51
2024/02/17 01:48:10;;;;;;;20.80;10.10;;;9.80;99.90;;;;;;5012269;28;20037;-51
2024/02/17 01:50:35;;;;;;;27.70;11.50;;;9.80;99.90;;;;;;5012006;28;20034;-50
2024/02/17 01:53:01;;;;;;;29.23;11.83;;;9.80;99.90;;;;;;5010995;28;20034;-49
2024/02/17 01:55:28;;;;;;;27.17;11.10;;;9.80;99.90;;;;;;5012161;28;20030;-49
2024/02/17 01:57:54;;;;;;;29.30;11.13;;;9.80;99.90;;;;;;5010906;28;20034;-49
2024/02/17 02:00:21;;;;;;;26.63;10.83;;;9.80;99.90;;;;;;5010811;28;20042;-50
2024/02/17 02:02:48;;;;;;;24.10;11.17;;;9.80;99.90;;;;;;5010966;28;20153;-52
2024/02/17 02:05:13;;;;;;;25.37;11.50;;;9.80;99.90;;;;;;5011875;28;20037;-52
2024/02/17 02:07:39;;;;;;;30.00;11.73;;;9.80;99.90;;;;;;5012125;28;20100;-51
2024/02/17 02:10:06;;;;;;;27.27;10.93;;;9.80;99.90;;;;;;5011812;28;20033;-49
2024/02/17 02:12:31;;;;;;;25.37;11.13;;;9.80;99.90;;;;;;5010958;28;20042;-50
2024/02/17 02:15:10;;;;;;;22.40;10.83;;;9.80;99.90;;;;;;5011932;28;20030;-50
2024/02/17 02:17:39;;;;;;;20.98;9.88;;;9.80;99.90;;;;;;5011960;28;20038;-49
2024/02/17 02:20:06;;;;;;;24.42;11.13;;;9.80;99.90;;;;;;5011765;28;20034;-49
2024/02/17 02:22:32;;;;;;;22.17;10.40;;;9.90;99.90;;;;;;5011854;28;20030;-50
2024/02/17 02:24:59;;;;;;;26.73;11.33;;;9.90;99.90;;;;;;5011745;28;20038;-50
2024/02/17 02:27:25;;;;;;;21.17;10.63;;;9.90;99.90;;;;;;5011861;28;20099;-50
2024/02/17 02:29:56;;;;;;;22.57;10.63;;;9.90;99.90;;;;;;5011550;28;20402;-50
2024/02/17 02:32:25;;;;;;;22.50;11.33;;;9.90;99.90;;;;;;5011839;28;20022;-54
2024/02/17 02:34:52;;;;;;;23.60;10.73;;;9.90;99.90;;;;;;5011793;28;20169;-49
2024/02/17 02:37:18;;;;;;;25.23;11.07;;;9.90;99.90;;;;;;5011737;28;20033;-50
2024/02/17 02:39:43;;;;;;;27.20;11.10;;;9.90;99.90;;;;;;5011528;28;20079;-51
2024/02/17 02:42:09;;;;;;;24.10;11.50;;;9.80;99.90;;;;;;5012107;28;20033;-52
2024/02/17 02:44:35;;;;;;;28.53;10.40;;;9.80;99.90;;;;;;5015374;28;20041;-49
2024/02/17 02:47:00;;;;;;;23.30;10.70;;;9.80;99.90;;;;;;5015580;28;20187;-51
2024/02/17 02:49:26;;;;;;;21.63;10.73;;;9.80;99.90;;;;;;5015336;28;20434;-49
2024/02/17 02:51:52;;;;;;;25.27;10.97;;;9.80;99.90;;;;;;5015573;28;20026;-52
2024/02/17 02:54:19;;;;;;;21.63;10.97;;;9.80;99.90;;;;;;5015244;28;20030;-49
2024/02/17 02:56:44;;;;;;;25.50;10.70;;;9.80;99.90;;;;;;5015812;28;20042;-52
2024/02/17 02:59:10;;;;;;;26.73;11.70;;;9.80;99.90;;;;;;5015015;28;20113;-52
2024/02/17 03:01:36;;;;;;;24.07;11.17;;;9.80;99.90;;;;;;5015287;28;20117;-50
2024/02/17 03:04:01;;;;;;;25.80;10.93;;;9.80;99.90;;;;;;5015121;28;20124;-49
2024/02/17 03:06:29;;;;;;;20.90;10.07;;;9.80;99.90;;;;;;5015145;28;20085;-49
2024/02/17 03:08:55;;;;;;;24.50;11.80;;;9.80;99.90;;;;;;5015010;28;20061;-51
2024/02/17 03:11:20;;;;;;;23.20;10.73;;;9.80;99.90;;;;;;5015001;28;20053;-49
2024/02/17 03:13:46;;;;;;;22.93;11.17;;;9.80;99.90;;;;;;5014916;28;20084;-49
2024/02/17 03:16:22;;;;;;;28.23;11.60;;;9.80;99.90;;;;;;5014993;28;20033;-48
2024/02/17 03:18:47;;;;;;;27.57;12.00;;;9.80;99.90;;;;;;5014813;28;20060;-49
2024/02/17 03:21:13;;;;;;;23.40;10.90;;;9.80;99.90;;;;;;5014771;28;20056;-48
2024/02/17 03:23:38;;;;;;;24.70;11.43;;;9.80;99.90;;;;;;5013387;28;20454;-49
2024/02/17 03:26:05;;;;;;;23.73;11.33;;;9.90;99.90;;;;;;5014888;28;20034;-48
2024/02/17 03:28:31;;;;;;;25.37;11.23;;;9.90;99.90;;;;;;5014395;28;20196;-49
2024/02/17 03:30:57;;;;;;;25.23;11.90;;;9.90;99.90;;;;;;5014747;28;20037;-51
2024/02/17 03:33:23;;;;;;;23.73;10.63;;;9.90;99.90;;;;;;5014648;28;20041;-49
2024/02/17 03:35:49;;;;;;;24.47;10.90;;;9.90;99.90;;;;;;5014616;28;20030;-49
2024/02/17 03:38:14;;;;;;;20.97;10.90;;;10.00;99.90;;;;;;5014512;28;20029;-49
2024/02/17 03:40:40;;;;;;;23.30;11.23;;;9.90;99.90;;;;;;5013081;28;20367;-50
2024/02/17 03:43:05;;;;;;;27.10;11.43;;;9.90;99.90;;;;;;5014472;28;20083;-53
2024/02/17 03:45:31;;;;;;;25.00;11.87;;;9.90;99.90;;;;;;5014337;28;20030;-52
2024/02/17 03:47:57;;;;;;;26.13;11.77;;;9.80;99.90;;;;;;5014438;28;20479;-49
2024/02/17 03:50:22;;;;;;;22.60;11.33;;;9.80;99.90;;;;;;5014102;28;20057;-49
2024/02/17 03:52:48;;;;;;;25.87;11.43;;;9.80;99.90;;;;;;5014207;28;20397;-51
2024/02/17 03:55:14;;;;;;;26.83;12.03;;;9.80;99.90;;;;;;5013987;28;20044;-49
2024/02/17 03:57:39;;;;;;;26.73;12.27;;;9.90;99.90;;;;;;5014240;28;20129;-51
2024/02/17 04:00:07;;;;;;;23.13;10.90;;;9.90;99.90;;;;;;5014035;28;20026;-49
2024/02/17 04:02:38;;;;;;;25.13;10.77;;;9.90;99.90;;;;;;5014358;28;20038;-49
2024/02/17 04:05:04;;;;;;;26.30;12.53;;;9.80;99.90;;;;;;5014016;28;20033;-49
2024/02/17 04:07:30;;;;;;;23.70;11.47;;;9.90;99.90;;;;;;5013958;28;20042;-51
2024/02/17 04:09:55;;;;;;;25.73;11.77;;;10.00;99.90;;;;;;5013672;28;20026;-50
2024/02/17 04:12:21;;;;;;;31.13;12.50;;;10.00;99.90;;;;;;5013865;28;20486;-49
2024/02/17 04:14:47;;;;;;;21.97;11.07;;;10.00;99.90;;;;;;5013883;28;20037;-50
2024/02/17 04:17:12;;;;;;;23.37;10.43;;;10.00;99.90;;;;;;5013869;28;20046;-49
2024/02/17 04:19:38;;;;;;;25.57;11.30;;;9.90;99.90;;;;;;5013571;28;20034;-49
2024/02/17 04:22:04;;;;;;;24.67;10.77;;;9.90;99.90;;;;;;5013783;28;20376;-49
2024/02/17 04:24:30;;;;;;;26.17;11.40;;;9.90;99.90;;;;;;5013493;28;20033;-49
2024/02/17 04:26:56;;;;;;;22.77;12.20;;;10.00;99.90;;;;;;5013681;28;20032;-48
2024/02/17 04:29:22;;;;;;;22.97;11.50;;;9.90;99.90;;;;;;5013349;28;20044;-48
2024/02/17 04:31:47;;;;;;;23.33;10.73;;;9.90;99.90;;;;;;5013674;28;20025;-50
2024/02/17 04:34:14;;;;;;;24.50;11.83;;;9.90;99.90;;;;;;5013496;28;20026;-49
2024/02/17 04:36:39;;;;;;;23.40;11.53;;;9.90;99.90;;;;;;5013523;28;20096;-49
2024/02/17 04:39:05;;;;;;;25.73;11.20;;;9.80;99.90;;;;;;5013226;28;20433;-49
2024/02/17 04:41:30;;;;;;;22.27;10.60;;;9.80;99.90;;;;;;5013479;28;20033;-49
2024/02/17 04:43:56;;;;;;;27.70;11.87;;;9.90;99.90;;;;;;5013208;28;20025;-49
2024/02/17 04:46:22;;;;;;;24.13;10.63;;;9.90;99.90;;;;;;5013559;28;20538;-49
2024/02/17 04:48:47;;;;;;;31.13;12.73;;;9.80;99.90;;;;;;5013463;28;20113;-50
2024/02/17 04:51:13;;;;;;;26.07;11.83;;;9.80;99.90;;;;;;5013190;28;20030;-48
2024/02/17 04:53:38;;;;;;;27.03;11.63;;;9.80;99.90;;;;;;5013031;28;20057;-49
2024/02/17 04:56:04;;;;;;;23.60;11.73;;;9.90;99.90;;;;;;5013279;28;20540;-49
2024/02/17 04:58:30;;;;;;;19.53;10.70;;;9.80;99.90;;;;;;5012999;28;20026;-49
2024/02/17 05:00:56;;;;;;;27.00;10.87;;;9.80;99.90;;;;;;5012997;28;20396;-49
2024/02/17 05:03:21;;;;;;;23.07;11.27;;;9.90;99.90;;;;;;5013153;28;20156;-49
2024/02/17 05:05:47;;;;;;;26.17;11.50;;;9.90;99.90;;;;;;5012361;28;20042;-51
2024/02/17 05:08:13;;;;;;;22.77;10.53;;;9.90;99.90;;;;;;5012884;28;20037;-49
2024/02/17 05:10:39;;;;;;;25.00;11.20;;;9.90;99.90;;;;;;5011538;28;20454;-51
2024/02/17 05:13:04;;;;;;;26.30;10.93;;;9.90;99.90;;;;;;5012848;28;20116;-50
2024/02/17 05:15:30;;;;;;;22.10;11.07;;;9.80;99.90;;;;;;5013047;28;20022;-49
2024/02/17 05:17:56;;;;;;;23.93;11.53;;;9.80;99.90;;;;;;5012805;28;20522;-49
2024/02/17 05:20:21;;;;;;;23.07;11.73;;;9.80;99.90;;;;;;5012593;28;20124;-49
2024/02/17 05:22:47;;;;;;;22.23;10.73;;;9.80;99.90;;;;;;5012690;28;20104;-49
2024/02/17 05:25:13;;;;;;;25.00;11.33;;;9.80;99.90;;;;;;5012549;28;20403;-51
2024/02/17 05:27:38;;;;;;;22.90;10.77;;;9.90;99.90;;;;;;5012662;28;20121;-50
2024/02/17 05:30:04;;;;;;;23.53;11.33;;;9.80;99.90;;;;;;5012315;28;20108;-49
2024/02/17 05:32:30;;;;;;;22.03;11.23;;;9.80;99.90;;;;;;5012572;28;20518;-49
2024/02/17 05:34:56;;;;;;;23.30;11.27;;;9.80;99.90;;;;;;5012452;28;20053;-49
2024/02/17 05:37:22;;;;;;;28.27;11.43;;;9.70;99.90;;;;;;5012569;28;20044;-49
2024/02/17 05:39:47;;;;;;;20.90;9.90;;;9.80;99.90;;;;;;5012251;28;20060;-51
2024/02/17 05:42:13;;;;;;;23.20;11.17;;;9.70;99.90;;;;;;5012515;28;20104;-50
2024/02/17 05:44:38;;;;;;;21.37;11.07;;;9.80;99.90;;;;;;5012271;28;20033;-49
2024/02/17 05:47:04;;;;;;;22.33;10.27;;;9.80;99.90;;;;;;5012383;28;20546;-50
2024/02/17 05:49:30;;;;;;;19.67;10.43;;;9.80;99.90;;;;;;5012034;28;20032;-49
2024/02/17 05:51:58;;;;;;;29.27;11.50;;;9.80;99.90;;;;;;5012193;28;20061;-49
2024/02/17 05:54:24;;;;;;;23.37;11.07;;;9.80;99.90;;;;;;5012100;28;20057;-49
2024/02/17 05:56:49;;;;;;;22.80;10.53;;;9.80;99.90;;;;;;5012191;28;20068;-51
2024/02/17 05:59:15;;;;;;;20.80;9.93;;;9.80;99.90;;;;;;5011999;28;20470;-51
2024/02/17 06:01:41;;;;;;;23.90;10.23;;;9.80;99.90;;;;;;5012163;28;20034;-48
2024/02/17 06:04:08;;;;;;;21.07;10.33;;;9.80;99.90;;;;;;5011834;28;20029;-49
2024/02/17 06:06:34;;;;;;;19.87;9.40;;;9.80;99.90;;;;;;5011905;28;20026;-48
2024/02/17 06:08:59;;;;;;;24.20;10.67;;;9.80;99.90;;;;;;5011907;28;20161;-51
2024/02/17 06:11:25;;;;;;;24.03;10.87;;;9.80;99.90;;;;;;5011967;28;20073;-49
2024/02/17 06:13:51;;;;;;;23.47;10.40;;;9.70;99.90;;;;;;5011810;28;20034;-49
2024/02/17 06:16:18;;;;;;;26.53;10.63;;;9.70;99.90;;;;;;5012493;28;20033;-49
2024/02/17 06:21:32;;;;;;;20.53;9.23;;;9.80;99.90;;;;;;5015993;28;20029;-49
2024/02/17 06:23:58;;;;;;;22.27;10.33;;;9.80;99.90;;;;;;5015917;28;21038;-51
2024/02/17 06:26:31;;;;;;;22.33;10.43;;;9.80;99.90;;;;;;5016143;28;20112;-49
2024/02/17 06:29:00;;;;;;;22.50;9.50;;;9.80;99.90;;;;;;5014538;28;20057;-50
2024/02/17 06:31:26;;;;;;;22.33;10.93;;;9.70;99.90;;;;;;5015871;28;20026;-48
2024/02/17 06:33:52;;;;;;;20.83;9.37;;;9.70;99.90;;;;;;5015617;28;20490;-48
2024/02/17 06:36:19;;;;;;;26.33;10.90;;;9.70;99.90;;;;;;5015683;28;20034;-49
2024/02/17 06:38:45;;;;;;;20.17;10.63;;;9.70;99.90;;;;;;5015479;28;20040;-50
2024/02/17 06:41:11;;;;;;;23.50;10.20;;;9.70;99.90;;;;;;5015580;28;20112;-49
2024/02/17 06:43:37;;;;;;;23.77;10.30;;;9.60;99.90;;;;;;5015477;28;20034;-50
2024/02/17 06:46:05;;;;;;;20.10;9.90;;;9.60;99.90;;;;;;5015578;28;20062;-49
2024/02/17 06:48:31;;;;;;;23.17;10.43;;;9.70;99.90;;;;;;5015324;28;20092;-49
2024/02/17 06:50:56;;;;;;;25.07;11.33;;;9.70;99.90;;;;;;5015339;28;20034;-48
2024/02/17 06:53:22;;;;;;;26.17;10.83;;;9.70;99.90;;;;;;5015407;28;20037;-48
2024/02/17 06:55:47;;;;;;;24.20;10.10;;;9.70;99.90;;;;;;5015435;28;20022;-49
2024/02/17 06:58:14;;;;;;;18.97;9.90;;;9.70;99.90;;;;;;5015365;28;20057;-48
2024/02/17 07:00:40;;;;;;;22.37;10.23;;;9.60;99.90;;;;;;5015034;28;20038;-49
2024/02/17 07:03:07;;;;;;;19.07;10.37;;;9.70;99.90;;;;;;5015189;28;20132;-50
2024/02/17 07:05:33;;;;;;;19.70;10.13;;;9.70;99.90;;;;;;5015061;28;20114;-49
2024/02/17 07:07:59;;;;;;;21.63;10.03;;;9.70;99.90;;;;;;5015164;28;20025;-48
2024/02/17 07:10:25;;;;;;;20.27;9.93;;;9.70;99.90;;;;;;5014809;28;20048;-50
2024/02/17 07:12:50;;;;;;;22.17;9.57;;;9.80;99.90;;;;;;5015217;28;20105;-50
2024/02/17 07:15:16;;;;;;;22.23;10.03;;;9.80;99.90;;;;;;5014949;28;20034;-53
2024/02/17 07:17:42;;;;;;;18.63;10.00;;;9.90;99.90;;;;;;5013756;28;20439;-51
2024/02/17 07:20:09;;;;;;;22.00;9.37;;;9.80;99.90;;;;;;5014686;28;20483;-53
2024/02/17 07:22:35;;;;;;;21.80;10.10;;;9.90;99.90;;;;;;5013685;28;20040;-49
2024/02/17 07:25:01;;;;;;;22.87;9.27;;;9.80;99.90;;;;;;5014756;28;20033;-49
2024/02/17 07:27:27;;;;;;;23.37;10.43;;;9.80;99.90;;;;;;5014899;28;20502;-48
2024/02/17 07:29:53;;;;;;;16.17;8.80;;;9.90;99.90;;;;;;5013759;28;20038;-51
2024/02/17 07:32:22;;;;;;;21.13;9.57;;;9.90;99.90;;;;;;5013513;28;20052;-49
2024/02/17 07:34:48;;;;;;;;;;;9.80;99.90;;;;;;5015130;28;20038;-48
2024/02/17 07:37:14;;;;;;;22.17;8.87;;;9.90;99.90;;;;;;5014806;28;20055;-50
2024/02/17 07:39:40;;;;;;;22.37;8.83;;;9.90;99.90;;;;;;5014253;28;20068;-51
2024/02/17 07:42:07;;;;;;;17.63;8.97;;;10.00;99.90;;;;;;5014667;28;20044;-49
2024/02/17 07:44:35;;;;;;;15.97;9.27;;;9.90;99.90;;;;;;5014563;28;20034;-49
2024/02/17 07:47:04;;;;;;;19.17;8.98;;;10.00;99.90;;;;;;5013368;28;20037;-50
2024/02/17 07:49:31;;;;;;;17.77;9.07;;;10.00;99.90;;;;;;5014216;28;20034;-49
2024/02/17 07:51:56;;;;;;;21.00;8.90;;;10.00;99.90;;;;;;5014226;28;20041;-50
2024/02/17 07:54:22;;;;;;;21.30;9.80;;;10.00;99.90;;;;;;5013084;28;20172;-49
2024/02/17 07:56:48;;;;;;;17.67;8.70;;;10.00;99.90;;;;;;5014875;28;20037;-49
2024/02/17 07:59:13;;;;;;;20.63;9.40;;;10.00;99.90;;;;;;5014046;28;20372;-49
2024/02/17 08:01:39;;;;;;;20.10;9.67;;;10.00;99.90;;;;;;5014252;28;20105;-49
2024/02/17 08:04:04;;;;;;;19.30;9.63;;;10.00;99.90;;;;;;5014143;28;20526;-48
2024/02/17 08:06:30;;;;;;;20.60;9.07;;;10.00;99.90;;;;;;5014214;28;20112;-49
2024/02/17 08:08:55;;;;;;;16.17;8.83;;;10.10;99.90;;;;;;5014017;28;20116;-50
2024/02/17 08:11:21;;;;;;;20.70;9.43;;;10.10;99.90;;;;;;5014554;28;20410;-49
2024/02/17 08:13:47;;;;;;;19.47;9.97;;;10.20;99.90;;;;;;5014431;28;20030;-49
2024/02/17 08:16:12;;;;;;;17.30;9.10;;;10.20;99.90;;;;;;5014760;28;20021;-49
2024/02/17 08:18:47;;;;;;;18.73;8.67;;;10.20;99.90;;;;;;5014091;28;20029;-49
2024/02/17 08:21:13;;;;;;;15.77;8.33;;;10.20;99.90;;;;;;5014684;28;20033;-50
2024/02/17 08:23:41;;;;;;;19.13;9.17;;;10.20;99.90;;;;;;5014539;28;20360;-53
2024/02/17 08:26:08;;;;;;;16.55;8.60;;;10.30;99.90;;;;;;5015667;28;20053;-53
2024/02/17 08:28:34;;;;;;;17.83;7.93;;;10.30;99.90;;;;;;5015848;28;20093;-51
2024/02/17 08:31:00;;;;;;;20.63;9.13;;;10.30;99.90;;;;;;5015061;28;20499;-51
2024/02/17 08:33:25;;;;;;;14.90;7.23;;;10.40;99.90;;;;;;5015513;28;20118;-52
2024/02/17 08:35:51;;;;;;;17.30;8.70;;;10.40;99.90;;;;;;5015854;28;20495;-52
2024/02/17 08:38:17;;;;;;;17.27;8.07;;;10.40;99.90;;;;;;5014569;28;20073;-48
2024/02/17 08:40:43;;;;;;;15.60;7.43;;;10.50;99.90;;;;;;5012302;28;20056;-50
2024/02/17 08:43:09;;;;;;;18.23;8.97;;;10.50;99.90;;;;;;5013495;28;20395;-51
2024/02/17 08:45:35;;;;;;;16.33;7.50;;;10.50;99.90;;;;;;5013320;28;20041;-51
2024/02/17 08:48:00;;;;;;;19.70;9.13;;;10.50;99.90;;;;;;5013354;28;20026;-50
2024/02/17 08:50:26;;;;;;;16.70;7.43;;;10.50;99.90;;;;;;5013024;28;20041;-49
2024/02/17 08:52:52;;;;;;;16.37;7.60;;;10.50;99.90;;;;;;5013212;28;20028;-49
2024/02/17 08:55:18;;;;;;;19.80;8.23;;;10.50;99.90;;;;;;5013107;28;20037;-51
2024/02/17 08:57:43;;;;;;;21.33;7.97;;;10.60;99.90;;;;;;5013129;28;20033;-52
2024/02/17 09:00:10;;;;;;;15.03;7.67;;;10.60;99.90;;;;;;5013000;28;20033;-52
2024/02/17 09:02:35;;;;;;;20.67;8.97;;;10.60;99.90;;;;;;5013146;28;20395;-49
2024/02/17 09:05:05;;;;;;;16.10;7.60;;;10.60;99.90;;;;;;5013007;28;20026;-51
2024/02/17 09:07:31;;;;;;;15.63;8.70;;;10.50;99.90;;;;;;5013098;28;20026;-50
2024/02/17 09:09:57;;;;;;;20.10;8.53;;;10.60;99.90;;;;;;5012659;28;20608;-50
2024/02/17 09:12:23;;;;;;;18.03;8.43;;;10.70;99.90;;;;;;5013077;28;20108;-52
2024/02/17 09:14:49;;;;;;;12.87;7.87;;;10.70;99.90;;;;;;5012827;28;20044;-51
2024/02/17 09:17:16;;;;;;;17.77;9.00;;;10.70;99.90;;;;;;5012863;28;20042;-49
2024/02/17 09:19:42;;;;;;;15.03;7.50;;;10.60;99.90;;;;;;5012956;28;20045;-50
2024/02/17 09:22:08;;;;;;;20.13;8.40;;;10.60;99.90;;;;;;5012664;28;20045;-49
2024/02/17 09:24:34;;;;;;;14.63;8.03;;;10.60;99.90;;;;;;5012489;28;20112;-49
2024/02/17 09:27:04;;;;;;;15.73;8.77;;;10.60;99.90;;;;;;5012700;28;20068;-50
2024/02/17 09:29:31;;;;;;;22.80;8.50;;;10.60;99.90;;;;;;5012332;28;20037;-49
2024/02/17 09:31:57;;;;;;;18.37;8.23;;;10.70;99.90;;;;;;5012473;28;20034;-49
2024/02/17 09:34:23;;;;;;;16.97;8.27;;;10.80;99.90;;;;;;5012421;28;20029;-49
2024/02/17 09:36:49;;;;;;;16.57;7.90;;;10.70;99.90;;;;;;5012492;28;20381;-49
2024/02/17 09:39:15;;;;;;;17.87;8.50;;;10.80;99.90;;;;;;5012733;28;20037;-49
2024/02/17 09:41:41;;;;;;;18.67;7.90;;;10.80;99.90;;;;;;5012451;28;20038;-49
2024/02/17 09:44:10;;;;;;;20.13;8.93;;;10.70;99.90;;;;;;5012194;28;20088;-51
2024/02/17 09:46:36;;;;;;;17.63;8.15;;;10.80;99.90;;;;;;5011080;28;20026;-50
2024/02/17 09:49:03;;;;;;;16.60;7.97;;;10.90;99.90;;;;;;5012160;28;20372;-49
2024/02/17 09:51:30;;;;;;;18.13;8.10;;;10.80;99.90;;;;;;5010782;28;20049;-47
2024/02/17 09:53:57;;;;;;;21.93;9.53;;;10.80;99.90;;;;;;5012075;28;20030;-48
2024/02/17 09:56:23;;;;;;;20.98;9.80;;;10.80;99.90;;;;;;5012250;28;20029;-52
2024/02/17 09:58:49;;;;;;;19.57;9.73;;;10.80;99.90;;;;;;5012018;28;20479;-48
2024/02/17 10:01:15;;;;;;;23.20;10.57;;;10.90;99.90;;;;;;5011942;28;20034;-48
2024/02/17 10:03:41;;;;;;;21.25;9.50;;;11.00;99.90;;;;;;5011917;28;20037;-51
2024/02/17 10:06:15;;;;;;;18.58;9.38;;;11.00;99.90;;;;;;5011957;28;20021;-50
2024/02/17 10:08:41;;;;;;;20.87;10.10;;;11.00;99.90;;;;;;5011886;28;20036;-48
2024/02/17 10:11:11;;;;;;;17.70;10.15;;;10.90;99.90;;;;;;5011868;28;20022;-48
2024/02/17 10:13:38;;;;;;;18.48;9.27;;;11.00;99.90;;;;;;5011924;28;20030;-50
2024/02/17 10:16:16;;;;;;;20.97;9.67;;;11.00;99.90;;;;;;5011956;28;20060;-50
2024/02/17 10:18:46;;;;;;;18.40;10.70;;;10.90;99.90;;;;;;5011643;28;20080;-49
2024/02/17 10:21:12;;;;;;;21.77;10.33;;;11.00;99.90;;;;;;5011869;28;20029;-50
2024/02/17 10:23:38;;;;;;;23.08;10.73;;;11.10;99.90;;;;;;5011706;28;20030;-52
2024/02/17 10:26:05;;;;;;;20.53;10.40;;;11.10;99.90;;;;;;5011810;28;20069;-51
2024/02/17 10:28:31;;;;;;;26.80;11.40;;;11.10;99.90;;;;;;5011502;28;20033;-50
2024/02/17 10:30:57;;;;;;;26.50;10.73;;;11.10;99.90;;;;;;5012220;28;20038;-50
2024/02/17 10:33:24;;;;;;;18.60;10.68;;;11.10;99.90;;;;;;5011628;28;20029;-48
2024/02/17 10:35:50;;;;;;;16.35;9.65;;;11.10;99.90;;;;;;5011780;28;20406;-49
2024/02/17 10:38:16;;;;;;;21.60;11.65;;;11.20;99.90;;;;;;5011686;28;20487;-51
2024/02/17 10:40:42;;;;;;;20.67;10.00;;;11.30;99.90;;;;;;5011508;28;20022;-50
2024/02/17 10:43:08;;;;;;;23.48;10.32;;;11.30;99.90;;;;;;5011581;28;20045;-49
2024/02/17 10:45:34;;;;;;;21.48;10.63;;;11.30;99.90;;;;;;5011480;28;20037;-53
2024/02/17 10:48:04;;;;;;;18.60;10.30;;;11.30;99.90;;;;;;5011523;28;20119;-49
2024/02/17 10:50:32;;;;;;;20.77;10.43;;;11.30;99.90;;;;;;5011634;28;20080;-51
2024/02/17 10:53:09;;;;;;;21.33;10.57;;;11.30;99.90;;;;;;5011745;28;20143;-48
2024/02/17 10:55:39;;;;;;;21.77;10.77;;;11.40;99.90;;;;;;5011517;28;20509;-50
2024/02/17 10:58:14;;;;;;;20.00;10.38;;;11.30;99.90;;;;;;5011406;28;20045;-52
2024/02/17 11:00:49;;;;;;;22.52;10.23;;;11.40;99.90;;;;;;5011357;28;20124;-53
2024/02/17 11:03:20;;;;;;;18.63;10.48;;;11.30;99.90;;;;;;5011876;28;20116;-50
2024/02/17 11:05:49;;;;;;;21.67;11.40;;;11.20;99.90;;;;;;4997370;28;20448;-51
2024/02/17 11:08:15;;;;;;;27.48;11.30;;;11.20;99.90;;;;;;5015299;28;20034;-50
2024/02/17 11:10:43;;;;;;;25.20;10.63;;;11.20;99.90;;;;;;5014817;28;20029;-50
2024/02/17 11:13:26;;;;;;;20.48;10.68;;;11.30;99.90;;;;;;5015148;28;20084;-49
2024/02/17 11:16:03;;;;;;;22.50;10.10;;;11.20;99.90;;;;;;5015024;28;20065;-50
2024/02/17 11:18:31;;;;;;;23.08;10.73;;;11.20;99.90;;;;;;5014876;28;20038;-49
2024/02/17 11:20:57;;;;;;;20.13;11.00;;;11.20;99.90;;;;;;5013679;28;20034;-51
2024/02/17 11:23:36;;;;;;;22.13;10.52;;;11.20;99.90;;;;;;5014763;28;20087;-49
2024/02/17 11:26:02;;;;;;;20.98;10.57;;;11.20;99.90;;;;;;5014828;28;20060;-52
2024/02/17 11:28:27;;;;;;;21.15;11.25;;;11.30;99.90;;;;;;5014568;28;20030;-51
2024/02/17 11:30:58;;;;;;;19.65;10.18;;;11.30;99.90;;;;;;5014539;28;20185;-53
2024/02/17 11:33:31;;;;;;;20.40;10.43;;;11.30;99.90;;;;;;5014749;28;20416;-49
2024/02/17 11:35:58;;;;;;;20.90;10.13;;;11.40;99.90;;;;;;5014561;28;20038;-49
2024/02/17 11:38:25;;;;;;;20.42;10.95;;;11.40;99.90;;;;;;5014545;28;20111;-50
2024/02/17 11:41:13;;;;;;;24.27;11.40;;;11.40;99.90;;;;;;5014342;28;20080;-49
2024/02/17 11:43:39;;;;;;;19.73;9.87;;;11.40;99.90;;;;;;5014569;28;20057;-53
2024/02/17 11:46:05;;;;;;;19.88;10.75;;;11.50;99.90;;;;;;5014321;28;20471;-49
2024/02/17 11:48:32;;;;;;;21.17;10.55;;;11.50;99.90;;;;;;5014316;28;20101;-49
2024/02/17 11:51:05;;;;;;;25.48;10.52;;;11.60;99.90;;;;;;5014351;28;20026;-49
2024/02/17 11:53:32;;;;;;;18.58;10.27;;;11.70;99.90;;;;;;5014274;28;20026;-50
2024/02/17 11:55:59;;;;;;;20.83;10.38;;;11.80;99.90;;;;;;5014591;28;20038;-51
2024/02/17 11:58:25;;;;;;;25.80;9.88;;;11.80;99.90;;;;;;5014355;28;20102;-49
2024/02/17 12:00:55;;;;;;;20.88;10.07;;;11.80;99.90;;;;;;5013976;28;20100;-51
2024/02/17 12:03:25;;;;;;;18.67;9.68;;;11.90;99.90;;;;;;5014127;28;20065;-50
2024/02/17 12:05:51;;;;;;;;;;;12.00;99.90;;;;;;5014574;28;20092;-50
2024/02/17 12:08:17;;;;;;;16.77;8.75;;;12.00;99.90;;;;;;5014008;28;19916;-48
2024/02/17 12:10:42;;;;;;;25.63;10.95;;;12.10;99.90;;;;;;5013794;28;20069;-50
2024/02/17 12:13:09;;;;;;;22.45;10.50;;;12.20;99.90;;;;;;5013839;28;20036;-50
2024/02/17 12:15:34;;;;;;;21.27;11.52;;;12.30;99.90;;;;;;5013862;28;20104;-49
2024/02/17 12:18:02;;;;;;;18.20;9.27;;;12.50;99.90;;;;;;5013908;28;20034;-49
2024/02/17 12:20:28;;;;;;;20.88;9.27;;;12.50;99.90;;;;;;5013648;28;20030;-48
2024/02/17 12:22:55;;;;;;;21.02;9.07;;;12.60;99.90;;;;;;5012648;28;20041;-53
2024/02/17 12:25:21;;;;;;;20.73;9.73;;;12.50;99.90;;;;;;5013549;28;20034;-49
2024/02/17 12:27:48;;;;;;;17.75;9.63;;;12.50;99.90;;;;;;5013597;28;20026;-50
2024/02/17 12:30:14;;;;;;;28.17;12.52;;;12.50;99.90;;;;;;5013343;28;20049;-50
2024/02/17 12:32:44;;;;;;;19.25;9.13;;;12.50;99.90;;;;;;5013679;28;20030;-51
2024/02/17 12:35:11;;;;;;;16.58;9.32;;;12.50;99.90;;;;;;5013433;28;20034;-53